createdAt,value
2022-11-03T09:36:04.258Z,688.00
2022-11-03T09:36:21.389Z,212.00
2022-11-03T09:46:15.159Z,964.00
2022-11-03T09:56:22.818Z,976.00
2022-11-03T10:06:31.612Z,1100.00
2022-11-03T10:16:39.936Z,1316.00
2022-11-03T10:26:48.310Z,1588.00
2022-11-03T10:36:56.207Z,1680.00
2022-11-03T10:47:04.829Z,1848.00
2022-11-03T10:57:12.952Z,2108.00
2022-11-03T11:07:20.384Z,2036.00
2022-11-03T11:17:27.890Z,2188.00
2022-11-03T11:27:34.992Z,1956.00
2022-11-03T11:37:42.401Z,1836.00
2022-11-03T11:47:49.907Z,1736.00
2022-11-03T11:57:59.790Z,1736.00
2022-11-03T12:08:09.182Z,1632.00
2022-11-03T12:18:18.031Z,1612.00
2022-11-03T12:28:26.891Z,1564.00
2022-11-03T12:38:34.728Z,1680.00
2022-11-03T12:48:43.053Z,1712.00
2022-11-03T12:58:52.097Z,1604.00
2022-11-03T13:09:00.271Z,1404.00
2022-11-03T13:19:07.435Z,1280.00
2022-11-03T13:29:16.314Z,1456.00
2022-11-03T13:39:23.462Z,1672.00
2022-11-03T13:59:45.819Z,1600.00
2022-11-03T14:09:54.331Z,1280.00
2022-11-03T14:20:05.228Z,1420.00
2022-11-03T14:30:13.619Z,1132.00
2022-11-03T14:40:20.874Z,760.00
2022-11-03T14:50:28.653Z,528.00
2022-11-03T15:00:36.577Z,372.00
2022-11-03T15:10:46.057Z,236.00
2022-11-03T15:20:53.938Z,136.00
2022-11-03T15:31:00.878Z,64.00
2022-11-03T15:42:28.985Z,20.00
2022-11-03T15:52:35.344Z,4.00
2022-11-03T16:02:43.807Z,0.00
2022-11-03T16:12:52.643Z,0.00
2022-11-03T16:23:01.291Z,0.00
2022-11-03T16:33:10.072Z,0.00
2022-11-03T16:43:17.437Z,0.00
2022-11-03T16:53:24.832Z,12.00
2022-11-03T17:03:32.239Z,8.00
2022-11-03T17:13:40.477Z,8.00
2022-11-03T17:23:48.505Z,8.00
2022-11-03T17:33:56.656Z,8.00
2022-11-03T17:44:05.030Z,8.00
2022-11-03T17:54:13.548Z,8.00
2022-11-03T18:04:21.754Z,8.00
2022-11-03T18:14:30.195Z,8.00
2022-11-03T18:24:38.386Z,8.00
2022-11-03T18:34:46.514Z,0.00
2022-11-03T18:44:56.450Z,0.00
2022-11-03T18:55:07.378Z,0.00
2022-11-03T19:05:14.985Z,0.00
2022-11-03T19:17:02.049Z,0.00
2022-11-03T19:26:55.424Z,0.00
2022-11-03T19:37:03.970Z,0.00
2022-11-03T19:47:12.600Z,0.00
2022-11-03T19:57:21.663Z,0.00
2022-11-03T20:07:31.753Z,8.00
2022-11-03T20:17:41.486Z,8.00
2022-11-03T20:27:50.283Z,8.00
2022-11-03T20:38:00.327Z,8.00
2022-11-03T20:48:08.323Z,8.00
2022-11-03T20:58:15.966Z,0.00
2022-11-03T21:08:23.491Z,0.00
2022-11-03T21:18:31.516Z,0.00
2022-11-03T21:28:39.739Z,0.00
2022-11-03T21:38:48.011Z,0.00
2022-11-03T21:48:56.493Z,0.00
2022-11-03T21:59:05.014Z,0.00
2022-11-03T22:09:14.100Z,8.00
2022-11-03T22:19:22.821Z,8.00
